Time;durP1;ratioP1;P1;durP2;ratioP2;P2;SDS_P1;SDS_P2;PMS_P1;PMS_P2;Temp;Humidity;BMP_temperature;BMP_pressure;BME280_temperature;BME280_humidity;BME280_pressure;Samples;Min_cycle;Max_cycle;Signal;HPM_P1;HPM_P2
2023/01/16 00:01:51;;;;;;;;;;;;;;;-4.43;77.98;99976.78;5043817;28;19951;-66
2023/01/16 00:04:17;;;;;;;;;;;;;;;-4.47;77.89;99977.28;5042597;28;19979;-66
2023/01/16 00:06:43;;;;;;;;;;;;;;;-4.44;78.20;99972.44;5044323;28;19990;-65
2023/01/16 00:09:09;;;;;;;;;;;;;;;-4.41;77.81;99969.41;5045963;28;19929;-65
2023/01/16 00:11:35;;;;;;;;;;;;;;;-4.41;77.86;99958.75;5043910;28;19956;-65
2023/01/16 00:14:01;;;;;;;;;;;;;;;-4.41;78.00;99965.94;5045331;28;20470;-65
2023/01/16 00:16:27;;;;;;;;;;;;;;;-4.39;77.95;99960.41;5028298;28;19940;-65
2023/01/16 00:18:54;;;;;;;;;;;;;;;-4.38;78.03;99964.72;5028213;28;19929;-65
2023/01/16 00:21:20;;;;;;;;;;;;;;;-4.38;77.97;99967.41;5029354;28;20048;-65
2023/01/16 00:23:46;;;;;;;;;;;;;;;-4.37;77.90;99953.91;5045121;28;20165;-65
2023/01/16 00:26:12;;;;;;;;;;;;;;;-4.37;77.93;99953.91;5027258;28;20280;-66
2023/01/16 00:28:37;;;;;;;;;;;;;;;-4.35;78.11;99945.72;5027150;28;19952;-65
2023/01/16 00:31:04;;;;;;;;;;;;;;;-4.34;77.98;99942.84;5044661;28;19990;-65
2023/01/16 00:33:30;;;;;;;;;;;;;;;-4.36;77.89;99936.88;5044808;28;19972;-65
2023/01/16 00:35:57;;;;;;;;;;;;;;;-4.36;77.93;99939.53;5047584;28;19975;-62
2023/01/16 00:38:23;;;;;;;;;;;;;;;-4.34;78.06;99928.69;5044681;28;20533;-63
2023/01/16 00:40:48;;;;;;;;;;;;;;;-4.29;77.99;99923.66;5045415;28;19944;-61
2023/01/16 00:43:14;;;;;;;;;;;;;;;-4.30;77.90;99928.16;5043796;28;19974;-61
2023/01/16 00:45:40;;;;;;;;;;;;;;;-4.33;77.88;99928.50;5025874;28;19947;-66
2023/01/16 00:48:06;;;;;;;;;;;;;;;-4.32;78.03;99916.00;5042122;28;19929;-65
2023/01/16 00:50:32;;;;;;;;;;;;;;;-4.32;77.91;99916.81;5025506;28;19974;-66
2023/01/16 00:52:59;;;;;;;;;;;;;;;-4.35;78.16;99927.03;5043240;28;20438;-63
2023/01/16 00:55:25;;;;;;;;;;;;;;;-4.36;78.33;99912.03;5042381;28;19991;-62
2023/01/16 00:57:51;;;;;;;;;;;;;;;-4.34;78.36;99939.38;5044072;28;20411;-62
2023/01/16 01:00:19;;;;;;;;;;;;;;;-4.37;78.43;99915.66;5045908;28;19935;-62
2023/01/16 01:02:45;;;;;;;;;;;;;;;-4.43;78.75;99936.72;5042943;28;20466;-62
2023/01/16 01:05:11;;;;;;;;;;;;;;;-4.44;78.83;99908.38;5041978;28;20020;-62
2023/01/16 01:07:37;;;;;;;;;;;;;;;-4.44;79.02;99905.69;5042591;28;20023;-61
2023/01/16 01:10:04;;;;;;;;;;;;;;;-4.39;79.06;99904.34;5042437;28;19928;-62
2023/01/16 01:12:30;;;;;;;;;;;;;;;-4.40;79.13;99898.19;5040844;28;19982;-61
2023/01/16 01:14:56;;;;;;;;;;;;;;;-4.39;79.09;99894.50;5041126;28;19932;-61
2023/01/16 01:17:22;;;;;;;;;;;;;;;-4.38;79.10;99904.16;5042393;28;20628;-62
2023/01/16 01:19:47;;;;;;;;;;;;;;;-4.38;79.21;99908.66;5043617;28;19929;-62
2023/01/16 01:22:15;;;;;;;;;;;;;;;-4.41;79.33;99905.34;5043108;28;19990;-63
2023/01/16 01:24:41;;;;;;;;;;;;;;;-4.39;79.47;99904.34;5023039;28;20521;-65
2023/01/16 01:27:08;;;;;;;;;;;;;;;-4.40;79.40;99892.84;5047354;28;20035;-65
2023/01/16 01:29:34;;;;;;;;;;;;;;;-4.43;79.53;99894.00;5040441;28;19939;-65
2023/01/16 01:32:00;;;;;;;;;;;;;;;-4.38;79.86;99882.81;5042480;28;19932;-66
2023/01/16 01:34:26;;;;;;;;;;;;;;;-4.35;79.82;99892.31;5043776;28;19955;-66
2023/01/16 01:36:52;;;;;;;;;;;;;;;-4.36;79.65;99878.13;5042374;28;19937;-66
2023/01/16 01:39:17;;;;;;;;;;;;;;;-4.37;79.74;99880.97;5042577;28;19929;-65
2023/01/16 01:41:43;;;;;;;;;;;;;;;-4.37;79.74;99880.97;5043384;28;19928;-69
2023/01/16 01:44:39;;;;;;;;;;;;;;;-4.34;79.78;99873.44;5043572;28;20046;-65
2023/01/16 01:47:06;;;;;;;;;;;;;;;-4.31;79.76;99862.41;4982240;28;19934;-65
2023/01/16 01:49:33;;;;;;;;;;;;;;;-4.25;79.82;99868.88;5023020;28;20419;-66
2023/01/16 01:52:01;;;;;;;;;;;;;;;-4.23;79.69;99866.88;5031514;28;19928;-66
2023/01/16 01:54:30;;;;;;;;;;;;;;;-4.22;79.59;99857.03;5045303;28;19936;-65
2023/01/16 01:56:58;;;;;;;;;;;;;;;-4.23;79.46;99866.03;5042452;28;19929;-65
2023/01/16 01:59:26;;;;;;;;;;;;;;;-4.25;79.54;99852.84;5040285;28;19943;-65
2023/01/16 02:01:53;;;;;;;;;;;;;;;-4.26;79.80;99853.88;5043341;28;19936;-65
2023/01/16 02:04:23;;;;;;;;;;;;;;;-4.25;79.67;99844.84;5041031;28;19929;-66
2023/01/16 02:06:52;;;;;;;;;;;;;;;-4.23;79.71;99850.84;5039958;28;20343;-66
2023/01/16 02:09:18;;;;;;;;;;;;;;;-4.26;79.67;99835.19;5040983;28;20388;-61
2023/01/16 02:11:48;;;;;;;;;;;;;;;-4.35;79.97;99838.91;5041331;28;19975;-63
2023/01/16 02:14:15;;;;;;;;;;;;;;;-4.38;80.12;99842.75;5043014;28;19936;-64
2023/01/16 02:19:31;;;;;;;;;;;;;;;-4.43;80.34;99837.13;5044224;28;19928;-60
2023/01/16 02:22:20;;;;;;;;;;;;;;;-4.45;80.54;99839.97;5041352;28;19939;-61
2023/01/16 02:25:01;;;;;;;;;;;;;;;-4.48;80.59;99824.31;5041000;28;19929;-61
2023/01/16 02:27:45;;;;;;;;;;;;;;;-4.45;80.36;99823.94;5045391;28;20010;-65
2023/01/16 02:30:25;;;;;;;;;;;;;;;-4.45;80.36;99825.78;5016500;28;20522;-65
2023/01/16 02:32:55;;;;;;;;;;;;;;;-4.44;80.63;99816.78;5040829;28;20407;-65
2023/01/16 02:35:38;;;;;;;;;;;;;;;-4.48;80.48;99820.78;5025603;28;19936;-65
2023/01/16 02:38:08;;;;;;;;;;;;;;;-4.49;80.41;99817.31;5024536;28;20422;-65
2023/01/16 02:40:39;;;;;;;;;;;;;;;-4.50;80.72;99834.34;5039416;28;19974;-64
2023/01/16 02:43:12;;;;;;;;;;;;;;;-4.50;80.44;99825.47;5042127;28;19936;-66
2023/01/16 02:45:41;;;;;;;;;;;;;;;-4.48;80.27;99837.66;5039596;28;20019;-67
2023/01/16 02:48:12;;;;;;;;;;;;;;;-4.50;80.33;99829.00;5042526;28;19928;-65
2023/01/16 02:50:42;;;;;;;;;;;;;;;-4.54;80.51;99819.66;5036778;28;19959;-65
2023/01/16 02:53:14;;;;;;;;;;;;;;;-4.54;80.40;99850.88;5040904;28;20023;-65
2023/01/16 02:55:42;;;;;;;;;;;;;;;-4.56;80.30;99822.50;5042707;28;19929;-65
2023/01/16 02:58:11;;;;;;;;;;;;;;;-4.55;80.60;99823.31;5024153;28;20421;-65
2023/01/16 03:00:37;;;;;;;;;;;;;;;-4.58;80.52;99816.53;5041473;28;19933;-65
2023/01/16 03:03:03;;;;;;;;;;;;;;;-4.61;80.53;99811.50;5040450;28;19998;-66
2023/01/16 03:05:35;;;;;;;;;;;;;;;-4.62;80.62;99803.69;5042082;28;20010;-65
2023/01/16 03:08:17;;;;;;;;;;;;;;;-4.65;80.62;99804.06;5042342;28;20502;-65
2023/01/16 03:10:55;;;;;;;;;;;;;;;-4.67;80.80;99806.06;5042239;28;20029;-65
2023/01/16 03:13:28;;;;;;;;;;;;;;;-4.64;80.83;99797.72;5046003;28;19928;-65
2023/01/16 03:16:01;;;;;;;;;;;;;;;-4.64;80.57;99795.84;5046607;28;19929;-65
2023/01/16 03:18:33;;;;;;;;;;;;;;;-4.71;80.49;99806.38;5044041;28;19933;-65
2023/01/16 03:21:04;;;;;;;;;;;;;;;-4.73;80.67;99788.91;5045165;28;20414;-65
2023/01/16 03:23:34;;;;;;;;;;;;;;;-4.73;80.98;99783.59;5045196;28;20035;-66
2023/01/16 03:26:01;;;;;;;;;;;;;;;-4.66;80.76;99789.88;5043586;28;20561;-67
2023/01/16 03:28:32;;;;;;;;;;;;;;;-4.68;80.60;99769.69;5044414;28;19968;-65
2023/01/16 03:31:05;;;;;;;;;;;;;;;-4.69;80.86;99779.53;5042423;28;19929;-66
2023/01/16 03:33:33;;;;;;;;;;;;;;;-4.71;80.62;99777.03;5046210;28;19933;-65
2023/01/16 03:36:02;;;;;;;;;;;;;;;-4.72;80.82;99780.72;5045050;28;19982;-66
2023/01/16 03:38:30;;;;;;;;;;;;;;;-4.72;80.64;99770.03;5047890;28;19932;-65
2023/01/16 03:41:00;;;;;;;;;;;;;;;-4.71;80.62;99773.56;5050627;28;20395;-66
2023/01/16 03:43:28;;;;;;;;;;;;;;;-4.72;80.73;99778.06;5049171;28;19929;-65
2023/01/16 03:45:56;;;;;;;;;;;;;;;-4.70;80.81;99785.88;5035280;28;20410;-65
2023/01/16 03:48:24;;;;;;;;;;;;;;;-4.65;80.66;99788.03;5053294;28;19986;-65
2023/01/16 03:50:52;;;;;;;;;;;;;;;-4.66;80.48;99784.53;5030454;28;19928;-65
2023/01/16 03:53:20;;;;;;;;;;;;;;;-4.69;80.59;99776.88;5052398;28;19928;-65
2023/01/16 03:55:51;;;;;;;;;;;;;;;-4.71;80.69;99773.56;5052578;28;19935;-67
2023/01/16 03:58:20;;;;;;;;;;;;;;;-4.71;80.77;99778.91;5048959;28;19939;-65
2023/01/16 04:00:48;;;;;;;;;;;;;;;-4.67;80.56;99777.53;5046194;28;20299;-65
2023/01/16 04:03:19;;;;;;;;;;;;;;;-4.69;80.64;99774.22;5048251;28;19943;-65
2023/01/16 04:05:47;;;;;;;;;;;;;;;-4.69;80.74;99771.53;5050192;28;20446;-65
2023/01/16 04:08:14;;;;;;;;;;;;;;;-4.67;80.66;99776.72;5052036;28;19929;-66
2023/01/16 04:10:43;;;;;;;;;;;;;;;-4.63;80.46;99764.66;5052036;28;19928;-66
2023/01/16 04:13:11;;;;;;;;;;;;;;;-4.67;80.39;99766.84;5031224;28;20300;-65
2023/01/16 04:15:39;;;;;;;;;;;;;;;-4.70;80.38;99770.69;5043266;28;19939;-62
2023/01/16 04:18:05;;;;;;;;;;;;;;;-4.71;80.62;99776.22;5046824;28;20391;-62
2023/01/16 04:20:31;;;;;;;;;;;;;;;-4.70;80.56;99769.88;5050507;28;20383;-61
2023/01/16 04:22:57;;;;;;;;;;;;;;;-4.69;80.57;99776.88;5054868;28;20296;-64
2023/01/16 04:25:22;;;;;;;;;;;;;;;-4.73;80.66;99771.06;5053711;28;19935;-63
2023/01/16 04:27:48;;;;;;;;;;;;;;;-4.76;80.55;99773.22;5054546;28;19928;-61
2023/01/16 04:30:16;;;;;;;;;;;;;;;-4.78;81.00;99767.25;5049560;28;20430;-62
2023/01/16 04:32:42;;;;;;;;;;;;;;;-4.76;80.90;99763.41;5048808;28;20383;-62
2023/01/16 04:35:08;;;;;;;;;;;;;;;-4.76;80.78;99768.75;4697918;28;9999765;-62
2023/01/16 04:37:34;;;;;;;;;;;;;;;-4.76;80.79;99763.41;5040647;28;20516;-66
2023/01/16 04:40:00;;;;;;;;;;;;;;;-4.76;80.84;99766.06;5040330;28;20035;-65
2023/01/16 04:42:27;;;;;;;;;;;;;;;-4.74;80.77;99765.91;5039582;28;20453;-65
2023/01/16 04:44:52;;;;;;;;;;;;;;;-4.69;81.04;99768.88;5027119;28;19928;-65
2023/01/16 04:47:19;;;;;;;;;;;;;;;-4.70;81.07;99746.69;5040963;28;19950;-66
2023/01/16 04:49:45;;;;;;;;;;;;;;;-4.71;81.14;99762.88;5045124;28;19935;-66
2023/01/16 04:52:12;;;;;;;;;;;;;;;-4.76;81.10;99749.22;5044066;28;19933;-66
2023/01/16 04:54:38;;;;;;;;;;;;;;;-4.74;81.31;99763.25;5042216;28;19935;-66
2023/01/16 04:57:03;;;;;;;;;;;;;;;-4.79;81.29;99753.09;5043284;28;20334;-65
2023/01/16 04:59:29;;;;;;;;;;;;;;;-4.82;81.07;99750.78;5042290;28;20291;-65
2023/01/16 05:01:55;;;;;;;;;;;;;;;-4.87;81.08;99745.97;5044452;28;19929;-65
2023/01/16 05:04:22;;;;;;;;;;;;;;;-4.87;81.00;99745.97;5046502;28;20359;-65
2023/01/16 05:06:48;;;;;;;;;;;;;;;-4.89;80.96;99757.81;5039148;28;19982;-65
2023/01/16 05:09:14;;;;;;;;;;;;;;;-4.90;80.81;99772.16;5042001;28;19956;-64
2023/01/16 05:11:39;;;;;;;;;;;;;;;-4.93;80.46;99762.66;5047184;28;19933;-63
2023/01/16 05:14:07;;;;;;;;;;;;;;;-4.93;80.48;99762.66;5053007;28;19929;-62
2023/01/16 05:16:33;;;;;;;;;;;;;;;-4.97;80.62;99753.34;5048089;28;19990;-63
2023/01/16 05:18:59;;;;;;;;;;;;;;;-4.96;81.05;99752.34;5049113;28;20201;-62
2023/01/16 05:21:26;;;;;;;;;;;;;;;-4.90;80.81;99745.47;5048212;28;19939;-60
2023/01/16 05:23:52;;;;;;;;;;;;;;;-4.88;80.78;99749.63;5024846;28;20544;-66
2023/01/16 05:26:18;;;;;;;;;;;;;;;-4.85;80.61;99746.63;5047804;28;19928;-62
2023/01/16 05:28:44;;;;;;;;;;;;;;;-4.80;80.51;99746.09;5040636;28;19929;-63
2023/01/16 05:31:10;;;;;;;;;;;;;;;-4.85;80.41;99735.94;5048105;28;19952;-63
2023/01/16 05:33:35;;;;;;;;;;;;;;;-4.86;80.41;99739.63;5044060;28;19932;-62
2023/01/16 05:36:01;;;;;;;;;;;;;;;-4.92;79.81;99732.28;5042815;28;19935;-63
2023/01/16 05:38:28;;;;;;;;;;;;;;;-4.93;80.09;99740.50;5025491;28;20035;-62
2023/01/16 05:40:54;;;;;;;;;;;;;;;-4.95;79.78;99742.50;5041381;28;19935;-63
2023/01/16 05:43:20;;;;;;;;;;;;;;;-4.89;80.15;99752.47;5043170;28;20019;-62
2023/01/16 05:45:45;;;;;;;;;;;;;;;-4.90;79.90;99749.00;5042683;28;20320;-63
2023/01/16 05:48:11;;;;;;;;;;;;;;;-4.91;79.57;99751.81;5051036;28;20415;-62
2023/01/16 05:50:37;;;;;;;;;;;;;;;-4.94;79.69;99754.84;5046974;28;19933;-63
2023/01/16 05:53:03;;;;;;;;;;;;;;;-5.01;79.62;99746.69;5026820;28;19929;-62
2023/01/16 05:55:30;;;;;;;;;;;;;;;-4.98;79.79;99743.69;5044934;28;19928;-63
2023/01/16 05:57:56;;;;;;;;;;;;;;;-4.95;79.87;99748.66;5045595;28;20011;-66
2023/01/16 06:00:22;;;;;;;;;;;;;;;-4.97;79.47;99749.84;5028252;28;19964;-65
2023/01/16 06:02:48;;;;;;;;;;;;;;;-5.02;79.57;99747.72;5043800;28;19936;-65
2023/01/16 06:05:14;;;;;;;;;;;;;;;-5.05;79.82;99748.06;5045206;28;19928;-65
2023/01/16 06:07:41;;;;;;;;;;;;;;;-5.03;79.84;99746.03;5041092;28;19928;-66
2023/01/16 06:10:08;;;;;;;;;;;;;;;-5.07;79.31;99744.72;5045836;28;19940;-65
2023/01/16 06:12:35;;;;;;;;;;;;;;;-5.12;79.48;99735.41;5044944;28;19929;-65
2023/01/16 06:15:01;;;;;;;;;;;;;;;-5.07;79.88;99740.22;5009532;28;19987;-61
2023/01/16 06:17:27;;;;;;;;;;;;;;;-4.97;79.75;99740.00;5041201;28;19932;-62
2023/01/16 06:19:53;;;;;;;;;;;;;;;-4.91;79.55;99739.31;5036337;28;20301;-62
2023/01/16 06:22:19;;;;;;;;;;;;;;;-4.92;79.58;99732.28;5036671;28;19930;-61
2023/01/16 06:24:45;;;;;;;;;;;;;;;-4.91;79.06;99749.16;5035819;28;20036;-63
2023/01/16 06:27:10;;;;;;;;;;;;;;;-5.13;78.93;99724.94;5038020;28;19974;-63
2023/01/16 06:29:38;;;;;;;;;;;;;;;-5.01;79.01;99754.69;5041619;28;20313;-62
2023/01/16 06:32:04;;;;;;;;;;;;;;;-5.03;78.96;99735.38;5044477;28;19929;-62
2023/01/16 06:34:30;;;;;;;;;;;;;;;-5.05;79.09;99735.53;5041089;28;19929;-62
2023/01/16 06:36:56;;;;;;;;;;;;;;;-5.05;79.11;99737.38;5043821;28;19928;-66
2023/01/16 06:39:21;;;;;;;;;;;;;;;-5.00;79.24;99745.69;5042011;28;19928;-62
2023/01/16 06:41:47;;;;;;;;;;;;;;;-4.93;79.06;99741.31;5046113;28;19952;-60
2023/01/16 06:44:13;;;;;;;;;;;;;;;-4.96;78.42;99748.84;5045205;28;19928;-66
2023/01/16 06:46:40;;;;;;;;;;;;;;;-5.05;79.01;99735.53;5050423;28;19929;-63
2023/01/16 06:49:06;;;;;;;;;;;;;;;-5.03;79.17;99741.53;5052870;28;19950;-62
2023/01/16 06:51:31;;;;;;;;;;;;;;;-4.97;79.04;99757.84;5030959;28;19935;-61
2023/01/16 06:53:57;;;;;;;;;;;;;;;-4.99;78.71;99750.88;5048426;28;19929;-63
2023/01/16 06:56:24;;;;;;;;;;;;;;;-5.05;78.99;99751.53;5046578;28;20406;-63
2023/01/16 06:58:49;;;;;;;;;;;;;;;-5.02;78.94;99747.72;5047415;28;19935;-62
2023/01/16 07:01:15;;;;;;;;;;;;;;;-5.00;78.84;99751.84;5048979;28;20035;-62
2023/01/16 07:03:43;;;;;;;;;;;;;;;-4.97;78.48;99755.19;5047989;28;20311;-62
2023/01/16 07:06:08;;;;;;;;;;;;;;;-4.97;78.52;99756.00;5049186;28;20011;-65
2023/01/16 07:08:34;;;;;;;;;;;;;;;-4.94;78.41;99744.97;5050693;28;19936;-65
2023/01/16 07:11:00;;;;;;;;;;;;;;;-4.96;77.98;99762.19;5049532;28;19982;-61
2023/01/16 07:13:29;;;;;;;;;;;;;;;-5.01;77.87;99763.50;5047132;28;20463;-62
2023/01/16 07:22:34;;;;;;;;;;;;;;;-5.15;78.22;99759.75;5048594;28;19928;-66
2023/01/16 07:24:26;;;;;;;;;;;;;;;-5.09;78.55;99762.72;5047417;28;19935;-66
2023/01/16 07:26:53;;;;;;;;;;;;;;;-5.04;78.12;99771.06;5045467;28;19964;-66
2023/01/16 07:29:20;;;;;;;;;;;;;;;-5.06;78.25;99757.06;5048935;28;19928;-66
2023/01/16 07:31:46;;;;;;;;;;;;;;;-5.04;78.23;99766.53;5048078;28;20062;-65
2023/01/16 07:34:11;;;;;;;;;;;;;;;-5.02;78.09;99758.38;5047129;28;19995;-65
2023/01/16 07:36:38;;;;;;;;;;;;;;;-5.04;77.61;99763.06;5050108;28;19939;-66
2023/01/16 07:39:04;;;;;;;;;;;;;;;-5.12;77.93;99756.72;5047721;28;19951;-66
2023/01/16 07:41:30;;;;;;;;;;;;;;;-5.09;77.97;99755.56;5050741;28;20383;-66
2023/01/16 07:43:55;;;;;;;;;;;;;;;-5.06;77.69;99762.41;5050547;28;20019;-66
2023/01/16 07:46:21;;;;;;;;;;;;;;;-5.07;78.03;99761.56;5046452;28;19929;-66
2023/01/16 07:48:47;;;;;;;;;;;;;;;-4.96;77.79;99765.66;5046295;28;19932;-66
2023/01/16 07:51:12;;;;;;;;;;;;;;;-4.96;77.55;99760.34;5045523;28;20031;-65
2023/01/16 07:53:39;;;;;;;;;;;;;;;-4.97;77.01;99761.34;5045814;28;19974;-66
2023/01/16 07:56:05;;;;;;;;;;;;;;;-5.02;77.43;99766.38;5029913;28;19928;-65
2023/01/16 07:58:31;;;;;;;;;;;;;;;-4.99;77.13;99774.88;5046658;28;20339;-65
2023/01/16 08:00:57;;;;;;;;;;;;;;;-5.06;77.21;99755.22;5046016;28;19949;-66
2023/01/16 08:03:23;;;;;;;;;;;;;;;-5.08;77.68;99759.91;5045014;28;19928;-65
2023/01/16 08:05:51;;;;;;;;;;;;;;;-5.06;77.65;99770.41;5045478;28;20419;-66
2023/01/16 08:08:18;;;;;;;;;;;;;;;-5.07;77.28;99769.56;5045783;28;19967;-65
2023/01/16 08:10:45;;;;;;;;;;;;;;;-5.11;77.31;99760.25;5048647;28;19937;-66
2023/01/16 08:13:11;;;;;;;;;;;;;;;-5.11;77.50;99757.59;5047025;28;19929;-65
2023/01/16 08:15:37;;;;;;;;;;;;;;;-5.04;77.57;99760.38;5047056;28;20481;-65
2023/01/16 08:18:02;;;;;;;;;;;;;;;-5.00;77.46;99749.16;5044874;28;20410;-65
2023/01/16 08:20:28;;;;;;;;;;;;;;;-4.96;76.90;99775.53;5045109;28;19928;-65
2023/01/16 08:22:56;;;;;;;;;;;;;;;-5.00;76.78;99772.38;5047050;28;19959;-61
2023/01/16 08:25:23;;;;;;;;;;;;;;;-5.04;77.02;99776.38;5046817;28;19936;-61
2023/01/16 08:27:51;;;;;;;;;;;;;;;-5.05;76.99;99762.22;5044709;28;19929;-62
2023/01/16 08:30:17;;;;;;;;;;;;;;;-5.06;77.38;99757.06;5046953;28;19963;-62
2023/01/16 08:32:42;;;;;;;;;;;;;;;-4.99;77.20;99769.53;5046889;28;19928;-61
2023/01/16 08:35:09;;;;;;;;;;;;;;;-4.94;77.15;99750.31;5047291;28;19951;-61
2023/01/16 08:37:34;;;;;;;;;;;;;;;-4.94;76.79;99754.84;5051346;28;19960;-63
2023/01/16 08:40:00;;;;;;;;;;;;;;;-5.03;76.85;99810.06;5055095;28;19983;-66
2023/01/16 08:53:26;;;;;;;;;;;;;;;-5.06;77.95;99747.22;5048774;28;19982;-65
2023/01/16 08:55:52;;;;;;;;;;;;;;;-4.97;78.00;99739.19;5047271;28;19977;-65
2023/01/16 08:58:20;;;;;;;;;;;;;;;-4.97;77.54;99740.00;5046890;28;19929;-65
2023/01/16 09:00:48;;;;;;;;;;;;;;;-5.00;77.60;99733.16;5048212;28;19935;-62
2023/01/16 09:03:16;;;;;;;;;;;;;;;-4.98;78.05;99741.00;5045275;28;19933;-65
2023/01/16 09:05:42;;;;;;;;;;;;;;;-4.94;77.52;99755.66;5043322;28;20366;-65
2023/01/16 09:08:07;;;;;;;;;;;;;;;-5.00;77.58;99748.34;5047309;28;19936;-66
2023/01/16 09:10:33;;;;;;;;;;;;;;;-5.03;77.89;99780.72;5045320;28;19929;-66
2023/01/16 09:15:43;;;;;;;;;;;;;;;-5.07;78.13;99742.88;5049482;28;19944;-62
2023/01/16 09:18:11;;;;;;;;;;;;;;;-5.04;78.36;99753.19;5045181;28;20418;-62
2023/01/16 09:20:37;;;;;;;;;;;;;;;-5.01;78.50;99760.84;5047275;28;20470;-62
2023/01/16 09:23:03;;;;;;;;;;;;;;;-5.00;78.40;99738.50;5046177;28;20403;-62
2023/01/16 09:25:30;;;;;;;;;;;;;;;-4.96;78.22;99735.50;5044488;28;19935;-63
2023/01/16 09:27:55;;;;;;;;;;;;;;;-4.92;78.09;99742.97;5042427;28;19960;-62
2023/01/16 09:30:21;;;;;;;;;;;;;;;-4.93;78.16;99772.50;5046370;28;19991;-63
2023/01/16 09:32:47;;;;;;;;;;;;;;;-4.99;78.19;99734.00;5046308;28;19928;-62
2023/01/16 09:35:14;;;;;;;;;;;;;;;-5.00;78.38;99727.84;5046608;28;19968;-62
2023/01/16 09:37:42;;;;;;;;;;;;;;;-4.92;78.53;99728.81;5052002;28;20253;-61
2023/01/16 09:40:10;;;;;;;;;;;;;;;-4.88;78.16;99722.13;5046279;28;19936;-66
2023/01/16 09:45:28;;;;;;;;;;;;;;;-4.90;78.27;99700.97;5046011;28;19982;-65
2023/01/16 09:47:56;;;;;;;;;;;;;;;-4.86;78.12;99702.28;5044797;28;20054;-65
2023/01/16 09:50:28;;;;;;;;;;;;;;;-4.86;78.05;99699.59;5045571;28;19932;-66
2023/01/16 09:58:35;;;;;;;;;;;;;;;-4.73;77.67;99703.53;5046547;28;19928;-66
2023/01/16 10:01:02;;;;;;;;;;;;;;;-4.76;77.88;99682.50;5043579;28;20537;-65
2023/01/16 10:03:27;;;;;;;;;;;;;;;-4.74;78.13;99689.34;5043392;28;19983;-66
2023/01/16 10:05:57;;;;;;;;;;;;;;;-4.67;77.94;99684.13;5027854;28;20415;-65
2023/01/16 10:08:28;;;;;;;;;;;;;;;-4.65;77.71;99695.44;5045794;28;20376;-65
2023/01/16 10:10:57;;;;;;;;;;;;;;;-4.64;77.94;99686.44;5044923;28;19928;-65
2023/01/16 10:13:28;;;;;;;;;;;;;;;-4.54;77.64;99680.03;5043281;28;19929;-65
2023/01/16 10:15:57;;;;;;;;;;;;;;;-4.45;77.59;99684.28;5040664;28;19963;-64
2023/01/16 10:18:29;;;;;;;;;;;;;;;-4.31;77.21;99680.84;5047980;28;19928;-65
2023/01/16 10:21:06;;;;;;;;;;;;;;;-4.18;76.83;99682.06;5050584;28;19929;-62
2023/01/16 10:23:43;;;;;;;;;;;;;;;-4.09;76.09;99675.66;5047960;28;19936;-61
2023/01/16 10:26:12;;;;;;;;;;;;;;;-4.06;75.85;99658.41;5049196;28;19935;-62
2023/01/16 10:28:46;;;;;;;;;;;;;;;-4.08;76.22;99671.13;5044741;28;20459;-60
2023/01/16 10:31:16;;;;;;;;;;;;;;;-4.03;76.01;99666.06;5041817;28;19966;-63
2023/01/16 10:33:46;;;;;;;;;;;;;;;-3.94;76.08;99666.81;5047962;28;20027;-63
2023/01/16 10:36:15;;;;;;;;;;;;;;;-3.91;75.93;99666.44;5050863;28;19929;-63
2023/01/16 10:38:43;;;;;;;;;;;;;;;-3.92;75.45;99654.09;5047141;28;19932;-63
2023/01/16 10:49:25;;;;;;;;;;;;;;;-3.97;75.67;99662.66;5045584;28;19982;-62
2023/01/16 10:49:27;;;;;;;;;;;;;;;-3.84;76.04;99656.69;5048784;28;19935;-65
2023/01/16 10:51:55;;;;;;;;;;;;;;;-3.81;76.00;99655.50;5046392;28;20399;-65
2023/01/16 10:54:20;;;;;;;;;;;;;;;-3.82;76.07;99662.69;5047331;28;19929;-66
2023/01/16 10:56:46;;;;;;;;;;;;;;;-3.83;76.30;99665.53;5048627;28;19935;-65
2023/01/16 10:59:13;;;;;;;;;;;;;;;-3.82;76.43;99665.38;5049771;28;20039;-65
2023/01/16 11:01:39;;;;;;;;;;;;;;;-3.80;76.67;99659.81;5051568;28;20023;-63
2023/01/16 11:04:05;;;;;;;;;;;;;;;-3.82;77.07;99653.81;5048445;28;19929;-64
2023/01/16 11:06:31;;;;;;;;;;;;;;;-3.97;77.63;99667.19;5047163;28;19939;-62
2023/01/16 11:09:02;;;;;;;;;;;;;;;-4.02;78.27;99665.88;5048503;28;19929;-65
2023/01/16 11:20:06;;;;;;;;;;;;;;;-4.31;80.09;99667.47;5046121;28;19956;-60
2023/01/16 11:22:35;;;;;;;;;;;;;;;-4.37;79.77;99665.53;5050505;28;19936;-61
2023/01/16 11:25:04;;;;;;;;;;;;;;;-4.33;79.91;99672.19;5049911;28;19936;-61
2023/01/16 11:27:33;;;;;;;;;;;;;;;-4.25;79.73;99670.47;5047600;28;19935;-62
2023/01/16 11:30:02;;;;;;;;;;;;;;;-4.17;79.43;99668.53;5046215;28;19947;-66
2023/01/16 11:32:34;;;;;;;;;;;;;;;-4.12;78.68;99670.66;5049854;28;19998;-66
2023/01/16 11:35:00;;;;;;;;;;;;;;;-4.19;78.06;99659.03;5049826;28;19928;-66
2023/01/16 11:37:28;;;;;;;;;;;;;;;-4.29;77.87;99667.31;5047046;28;20429;-66
2023/01/16 11:39:54;;;;;;;;;;;;;;;-4.35;77.36;99671.53;5029080;28;19929;-66
2023/01/16 11:48:00;;;;;;;;;;;;;;;-4.36;76.46;99677.88;5044018;28;19973;-66
2023/01/16 11:50:28;;;;;;;;;;;;;;;-4.45;76.31;99662.94;5049249;28;19929;-66
2023/01/16 11:52:53;;;;;;;;;;;;;;;-4.52;76.26;99662.00;5046148;28;19936;-66
2023/01/16 11:55:22;;;;;;;;;;;;;;;-4.58;76.13;99663.53;5046544;28;19929;-65
2023/01/16 11:57:54;;;;;;;;;;;;;;;-4.62;76.48;99665.72;5045686;28;19929;-65
2023/01/16 12:00:31;;;;;;;;;;;;;;;-4.60;76.42;99670.91;5049601;28;20395;-65
2023/01/16 12:03:18;;;;;;;;;;;;;;;-4.62;76.47;99664.91;5045283;28;20013;-65
2023/01/16 12:05:56;;;;;;;;;;;;;;;-4.59;76.62;99669.91;5023667;28;19929;-62
2023/01/16 12:08:39;;;;;;;;;;;;;;;-4.53;76.57;99661.16;5045675;28;20409;-66
2023/01/16 12:11:07;;;;;;;;;;;;;;;-4.53;76.79;99657.69;5046876;28;19936;-65
2023/01/16 12:16:29;;;;;;;;;;;;;;;-4.70;76.96;99671.16;5042938;28;19928;-58
2023/01/16 12:19:08;;;;;;;;;;;;;;;-4.75;77.55;99674.34;5029720;28;19928;-65
2023/01/16 12:21:37;;;;;;;;;;;;;;;-4.77;77.62;99671.03;5044884;28;19928;-65
2023/01/16 12:24:18;;;;;;;;;;;;;;;-4.76;77.70;99671.84;5029099;28;19928;-66
2023/01/16 12:26:49;;;;;;;;;;;;;;;-4.77;77.74;99679.03;5011925;28;19952;-61
2023/01/16 12:29:22;;;;;;;;;;;;;;;-4.73;77.93;99676.84;5047405;28;20027;-61
2023/01/16 12:31:56;;;;;;;;;;;;;;;-4.70;78.07;99685.31;5030363;28;20011;-61
2023/01/16 12:34:32;;;;;;;;;;;;;;;-4.64;77.72;99674.94;5044418;28;19929;-65
2023/01/16 12:37:05;;;;;;;;;;;;;;;-4.59;77.91;99661.88;5045605;28;19939;-65
2023/01/16 12:39:39;;;;;;;;;;;;;;;-4.63;77.69;99647.25;5046090;28;19936;-66
2023/01/16 12:45:04;;;;;;;;;;;;;;;-4.63;78.18;99660.59;5045637;28;19929;-65
2023/01/16 12:47:36;;;;;;;;;;;;;;;-4.66;78.25;99656.44;5044377;28;19936;-65
2023/01/16 12:50:08;;;;;;;;;;;;;;;-4.67;78.28;99664.63;5043282;28;20031;-66
2023/01/16 12:52:43;;;;;;;;;;;;;;;-4.68;78.55;99652.28;5045124;28;19959;-65
2023/01/16 12:55:16;;;;;;;;;;;;;;;-4.74;78.89;99661.84;5045917;28;20006;-66
2023/01/16 12:57:50;;;;;;;;;;;;;;;-4.73;79.07;99671.50;5041932;28;19951;-66
2023/01/16 13:00:19;;;;;;;;;;;;;;;-4.77;79.28;99667.50;5043173;28;20454;-66
2023/01/16 13:02:47;;;;;;;;;;;;;;;-4.75;79.71;99665.53;5045963;28;20058;-65
2023/01/16 13:05:18;;;;;;;;;;;;;;;-4.72;79.58;99655.31;5043492;28;19941;-65
2023/01/16 13:07:45;;;;;;;;;;;;;;;-4.68;79.52;99657.63;5044785;28;19971;-66
2023/01/16 13:15:50;;;;;;;;;;;;;;;-4.71;80.20;99650.81;5046879;28;20323;-60
2023/01/16 13:18:19;;;;;;;;;;;;;;;-4.67;80.19;99659.31;5042403;28;19929;-61
2023/01/16 13:20:46;;;;;;;;;;;;;;;-4.68;80.08;99655.78;5041010;28;19972;-64
2023/01/16 13:23:14;;;;;;;;;;;;;;;-4.68;80.14;99657.63;5045081;28;19929;-65
2023/01/16 13:25:42;;;;;;;;;;;;;;;-4.69;80.32;99664.81;5044609;28;19929;-66
2023/01/16 13:28:17;;;;;;;;;;;;;;;-4.72;80.38;99660.66;5044281;28;20006;-65
2023/01/16 13:30:43;;;;;;;;;;;;;;;-4.68;80.28;99661.13;5040355;28;19955;-61
2023/01/16 13:33:11;;;;;;;;;;;;;;;-4.67;80.15;99657.44;5047400;28;19966;-69
2023/01/16 13:35:41;;;;;;;;;;;;;;;-4.70;79.94;99663.16;5046600;28;19929;-65
2023/01/16 13:38:22;;;;;;;;;;;;;;;-4.82;80.33;99661.91;5046458;28;20034;-66
2023/01/16 13:41:09;;;;;;;;;;;;;;;-4.86;80.96;99654.25;5047442;28;19994;-60
2023/01/16 13:46:22;;;;;;;;;;;;;;;-4.83;81.27;99666.41;5044683;28;19990;-66
2023/01/16 13:48:52;;;;;;;;;;;;;;;-4.86;81.32;99651.59;5043946;28;20501;-65
2023/01/16 13:51:20;;;;;;;;;;;;;;;-4.86;81.74;99661.41;5045897;28;20296;-66
2023/01/16 13:53:49;;;;;;;;;;;;;;;-4.84;81.70;99648.72;5044761;28;19929;-63
2023/01/16 13:56:20;;;;;;;;;;;;;;;-4.78;81.80;99657.84;5045424;28;20455;-64
2023/01/16 13:58:48;;;;;;;;;;;;;;;-4.81;81.90;99675.06;5044665;28;19936;-61